createdAt,value
2022-11-08T00:02:12.380Z,100408.63
2022-11-08T00:04:39.009Z,100403.50
2022-11-08T00:07:23.983Z,100377.81
2022-11-08T00:10:08.699Z,100408.97
2022-11-08T00:12:53.401Z,100442.25
2022-11-08T00:15:19.755Z,100431.16
2022-11-08T00:17:46.221Z,100400.59
2022-11-08T00:20:12.571Z,100392.13
2022-11-08T00:22:38.966Z,100409.31
2022-11-08T00:25:05.876Z,100414.41
2022-11-08T00:27:32.211Z,100409.31
2022-11-08T00:29:58.667Z,100411.97
2022-11-08T00:32:26.384Z,100356.28
2022-11-08T00:34:53.180Z,100431.56
2022-11-08T00:37:21.040Z,100426.41
2022-11-08T00:39:47.740Z,100382.44
2022-11-08T00:42:14.758Z,100431.50
2022-11-08T00:44:41.184Z,100372.03
2022-11-08T00:47:07.546Z,100397.06
2022-11-08T00:49:33.973Z,100369.72
2022-11-08T00:52:00.298Z,100355.91
2022-11-08T00:54:26.785Z,100392.25
2022-11-08T00:56:53.228Z,100358.06
2022-11-08T00:59:20.317Z,100414.41
2022-11-08T01:01:47.352Z,100407.72
2022-11-08T01:04:16.146Z,100403.63
2022-11-08T01:06:42.807Z,100354.84
2022-11-08T01:09:09.645Z,100373.78
2022-11-08T01:11:36.007Z,100408.31
2022-11-08T01:14:02.620Z,100362.84
2022-11-08T01:16:32.067Z,100384.72
2022-11-08T01:18:59.603Z,100376.03
2022-11-08T01:21:26.999Z,100405.00
2022-11-08T01:23:56.705Z,100389.56
2022-11-08T01:26:26.654Z,100381.03
2022-11-08T01:28:53.984Z,100401.56
2022-11-08T01:31:23.233Z,100367.31
2022-11-08T01:33:51.607Z,100393.00
2022-11-08T01:36:20.863Z,100368.56
2022-11-08T01:38:47.377Z,100401.81
2022-11-08T01:41:15.273Z,100396.44
2022-11-08T01:43:43.881Z,100368.50
2022-11-08T01:46:10.470Z,100397.06
2022-11-08T01:49:00.025Z,100358.44
2022-11-08T01:51:32.810Z,100368.69
2022-11-08T01:54:02.126Z,100376.19
2022-11-08T01:56:28.460Z,100365.53
2022-11-08T01:58:57.822Z,100354.09
2022-11-08T02:01:24.569Z,100354.34
2022-11-08T02:03:51.390Z,100351.47
2022-11-08T02:06:18.662Z,100324.88
2022-11-08T02:08:45.155Z,100377.97
2022-11-08T02:11:14.677Z,100369.41
2022-11-08T02:13:41.420Z,100359.38
2022-11-08T02:16:12.868Z,100356.94
2022-11-08T02:18:40.061Z,100336.00
2022-11-08T02:21:26.597Z,100363.22
2022-11-08T02:24:01.419Z,100342.13
2022-11-08T02:26:35.806Z,100360.16
2022-11-08T02:29:20.754Z,100352.16
2022-11-08T02:31:47.061Z,100336.38
2022-11-08T02:34:13.452Z,100323.53
2022-11-08T02:36:40.555Z,100292.31
2022-11-08T02:39:06.901Z,100298.94
2022-11-08T02:41:33.245Z,100296.75
2022-11-08T02:43:59.564Z,100308.59
2022-11-08T02:46:25.939Z,100296.44
2022-11-08T02:48:52.247Z,100261.28
2022-11-08T02:51:18.578Z,100274.97
2022-11-08T02:53:44.954Z,100307.16
2022-11-08T02:56:11.875Z,100236.91
2022-11-08T02:58:38.277Z,100290.00
2022-11-08T03:01:04.773Z,100269.59
2022-11-08T03:03:31.217Z,100291.41
2022-11-08T03:05:57.611Z,100260.53
2022-11-08T03:08:23.997Z,100257.47
2022-11-08T03:10:50.358Z,100272.66
2022-11-08T03:13:16.949Z,100135.25
2022-11-08T03:15:43.265Z,100240.75
2022-11-08T03:18:09.573Z,100219.13
2022-11-08T03:20:35.964Z,100226.41
2022-11-08T03:23:05.093Z,100236.81
2022-11-08T03:25:31.450Z,100206.09
2022-11-08T03:28:05.304Z,100270.94
2022-11-08T03:30:32.105Z,100241.56
2022-11-08T03:32:58.507Z,100213.38
2022-11-08T03:35:24.832Z,100246.28
2022-11-08T03:37:56.187Z,100208.72
2022-11-08T03:40:23.577Z,100199.38
2022-11-08T03:42:50.056Z,100198.53
2022-11-08T03:45:16.457Z,100170.19
2022-11-08T03:47:44.955Z,100206.09
2022-11-08T03:50:13.518Z,100223.13
2022-11-08T03:52:41.374Z,100229.66
2022-11-08T03:55:08.577Z,100224.69
2022-11-08T03:57:34.905Z,100207.56
2022-11-08T04:00:01.231Z,100158.66
2022-11-08T04:02:27.621Z,100181.53
2022-11-08T04:04:53.997Z,100200.47
2022-11-08T04:07:20.426Z,100197.13
2022-11-08T04:09:46.768Z,100158.53
2022-11-08T04:12:31.576Z,100191.94
2022-11-08T04:15:15.862Z,100172.75
2022-11-08T04:18:05.601Z,100198.41
2022-11-08T04:20:51.503Z,100166.75
2022-11-08T04:23:18.619Z,100188.84
2022-11-08T04:25:57.084Z,100146.91
2022-11-08T04:28:25.532Z,100186.66
2022-11-08T04:30:56.839Z,100179.47
2022-11-08T04:33:23.915Z,100179.34
2022-11-08T04:35:50.775Z,100128.03
2022-11-08T04:38:17.749Z,100164.72
2022-11-08T04:40:44.789Z,100110.00
2022-11-08T04:43:11.358Z,100156.84
2022-11-08T04:45:37.721Z,100150.91
2022-11-08T04:48:04.433Z,100111.72
2022-11-08T04:50:30.777Z,100112.28
2022-11-08T04:52:57.173Z,100135.47
2022-11-08T04:55:23.812Z,100103.72
2022-11-08T04:57:50.214Z,100078.50
2022-11-08T05:00:17.567Z,100094.56
2022-11-08T05:02:44.130Z,100102.28
2022-11-08T05:05:10.553Z,100079.72
2022-11-08T05:07:36.934Z,100062.06
2022-11-08T05:10:03.547Z,100081.72
2022-11-08T05:12:29.912Z,100079.75
2022-11-08T05:14:56.212Z,100053.38
2022-11-08T05:17:22.634Z,100070.38
2022-11-08T05:20:07.549Z,100102.94
2022-11-08T05:22:52.449Z,100060.31
2022-11-08T05:25:18.826Z,99999.06
2022-11-08T05:27:45.165Z,100067.44
2022-11-08T05:30:11.736Z,100073.34
2022-11-08T05:32:38.129Z,99996.88
2022-11-08T05:35:04.873Z,100081.94
2022-11-08T05:37:31.188Z,100052.34
2022-11-08T05:39:57.508Z,100021.28
2022-11-08T05:42:23.845Z,100062.25
2022-11-08T05:44:50.174Z,100023.72
2022-11-08T05:47:16.652Z,100011.50
2022-11-08T05:49:43.030Z,100032.25
2022-11-08T05:52:09.369Z,100013.44
2022-11-08T05:54:35.690Z,100010.09
2022-11-08T05:57:02.055Z,99986.19
2022-11-08T05:59:28.351Z,99996.38
2022-11-08T06:01:54.768Z,100004.66
2022-11-08T06:04:21.085Z,99998.91
2022-11-08T06:07:03.761Z,100015.16
2022-11-08T06:09:30.069Z,99996.13
2022-11-08T06:11:56.385Z,100041.63
2022-11-08T06:14:23.841Z,100041.28
2022-11-08T06:16:50.149Z,100059.84
2022-11-08T06:19:16.497Z,100020.53
2022-11-08T06:21:42.863Z,100043.88
2022-11-08T06:24:09.161Z,100025.41
2022-11-08T06:26:35.491Z,100034.34
2022-11-08T06:29:01.821Z,100005.97
2022-11-08T06:31:28.131Z,100020.81
2022-11-08T06:33:54.438Z,100052.28
2022-11-08T06:36:21.700Z,100036.16
2022-11-08T06:38:48.116Z,100061.63
2022-11-08T06:41:19.425Z,100041.81
2022-11-08T06:43:45.756Z,100061.94
2022-11-08T06:46:12.137Z,100043.25
2022-11-08T06:48:38.435Z,100067.19
2022-11-08T06:51:05.006Z,100039.94
2022-11-08T06:53:31.657Z,100069.94
2022-11-08T06:56:02.079Z,100076.09
2022-11-08T06:58:29.344Z,100044.59
2022-11-08T07:00:55.779Z,100037.03
2022-11-08T07:03:22.213Z,100039.94
2022-11-08T07:05:48.574Z,100043.38
2022-11-08T07:08:15.389Z,100044.84
2022-11-08T07:10:43.395Z,100044.97
2022-11-08T07:13:12.014Z,100057.69
2022-11-08T07:15:39.133Z,100061.94
2022-11-08T07:18:08.430Z,100054.97
2022-11-08T07:20:35.811Z,100033.03
2022-11-08T07:23:05.196Z,100033.78
2022-11-08T07:25:31.998Z,100046.44
2022-11-08T07:28:06.987Z,100058.63
2022-11-08T07:30:35.514Z,100046.50
2022-11-08T07:33:02.191Z,100063.31
2022-11-08T07:35:28.579Z,100004.38
2022-11-08T07:37:55.731Z,100025.66
2022-11-08T07:40:22.675Z,99997.31
2022-11-08T07:45:35.284Z,100026.88
2022-11-08T07:48:08.158Z,100026.88
2022-11-08T07:50:37.762Z,100033.97
2022-11-08T07:53:04.213Z,100008.06
2022-11-08T07:55:30.525Z,100060.78
2022-11-08T07:58:01.947Z,100054.22
2022-11-08T08:00:29.710Z,100064.75
2022-11-08T08:03:00.309Z,100036.59
2022-11-08T08:05:28.184Z,100051.59
2022-11-08T08:07:58.644Z,100052.66
2022-11-08T08:10:25.677Z,100071.72
2022-11-08T08:12:52.018Z,100067.13
2022-11-08T08:15:18.467Z,100019.91
2022-11-08T08:17:45.189Z,100072.94
2022-11-08T08:20:11.886Z,100047.84
2022-11-08T08:22:46.084Z,100010.88
2022-11-08T08:25:13.375Z,100077.56
2022-11-08T08:27:39.819Z,100044.75
2022-11-08T08:30:07.044Z,100094.97
2022-11-08T08:32:34.212Z,100087.25
2022-11-08T08:35:00.568Z,100049.50
2022-11-08T08:37:26.957Z,100087.25
2022-11-08T08:39:53.243Z,100049.16
2022-11-08T08:42:19.568Z,100060.81
2022-11-08T08:44:45.905Z,100023.63
2022-11-08T08:47:12.266Z,100072.66
2022-11-08T08:49:38.574Z,100038.66
2022-11-08T08:52:05.041Z,100051.31
2022-11-08T08:54:31.411Z,100080.28
2022-11-08T08:56:57.711Z,100066.66
2022-11-08T09:02:11.728Z,100056.44
2022-11-08T09:04:38.966Z,100053.59
2022-11-08T09:07:06.001Z,100059.44
2022-11-08T09:09:34.463Z,100065.16
2022-11-08T09:12:01.397Z,100044.78
2022-11-08T09:14:28.215Z,100063.16
2022-11-08T09:16:54.537Z,100074.00
2022-11-08T09:19:20.828Z,100037.00
2022-11-08T09:21:47.181Z,100045.13
2022-11-08T09:24:13.543Z,100056.72
2022-11-08T09:26:39.857Z,100036.31
2022-11-08T09:29:06.212Z,100042.63
2022-11-08T09:31:32.536Z,100036.09
2022-11-08T09:33:58.888Z,100047.84
2022-11-08T09:36:25.297Z,100043.22
2022-11-08T09:38:51.623Z,100037.88
2022-11-08T09:41:31.691Z,99998.53
2022-11-08T09:44:30.333Z,100034.03
2022-11-08T09:47:02.087Z,100016.31
2022-11-08T09:49:33.449Z,100011.06
2022-11-08T09:52:02.860Z,100021.94
2022-11-08T09:54:42.329Z,100008.00
2022-11-08T09:57:19.912Z,100022.63
2022-11-08T09:59:52.229Z,100032.97
2022-11-08T10:02:21.490Z,100033.38
2022-11-08T10:04:54.772Z,100024.16
2022-11-08T10:07:38.958Z,100006.28
2022-11-08T10:10:23.885Z,100018.81
2022-11-08T10:13:02.423Z,100014.69
2022-11-08T10:15:46.340Z,100008.22
2022-11-08T10:18:40.523Z,100025.09
2022-11-08T10:21:21.362Z,100015.84
2022-11-08T10:23:56.845Z,100018.16
2022-11-08T10:26:33.599Z,100016.34
2022-11-08T10:29:07.164Z,100006.81
2022-11-08T10:31:38.042Z,100004.94
2022-11-08T10:34:13.926Z,99974.56
2022-11-08T10:36:54.425Z,99989.25
2022-11-08T10:39:25.448Z,99926.38
2022-11-08T10:42:00.040Z,99995.13
2022-11-08T10:44:28.061Z,99999.13
2022-11-08T10:46:57.093Z,100006.41
2022-11-08T10:49:25.198Z,99998.19
2022-11-08T10:51:54.324Z,100003.94
2022-11-08T10:54:47.830Z,100009.41
2022-11-08T10:57:34.124Z,100005.25
2022-11-08T11:00:22.352Z,100000.50
2022-11-08T11:02:55.813Z,99959.88
2022-11-08T11:05:31.207Z,100000.22
2022-11-08T11:08:09.696Z,100000.09
2022-11-08T11:10:40.248Z,100008.84
2022-11-08T11:13:21.693Z,100000.84
2022-11-08T11:16:01.803Z,99965.81
2022-11-08T11:18:29.643Z,99984.38
2022-11-08T11:21:04.435Z,100001.97
2022-11-08T11:23:35.354Z,99968.28
2022-11-08T11:26:02.180Z,99987.09
2022-11-08T11:28:28.623Z,100009.44
2022-11-08T11:31:03.814Z,100015.06
2022-11-08T11:33:30.261Z,99985.66
2022-11-08T11:36:14.279Z,100014.66
2022-11-08T11:39:00.245Z,99988.53
2022-11-08T11:41:35.344Z,100019.09
2022-11-08T11:44:13.511Z,100038.00
2022-11-08T11:46:51.507Z,100043.41
2022-11-08T11:49:21.205Z,100037.25
2022-11-08T11:51:47.872Z,100012.97
2022-11-08T11:54:16.231Z,99997.59
2022-11-08T11:57:05.117Z,100005.63
2022-11-08T11:59:59.056Z,99994.16
2022-11-08T12:02:41.570Z,99999.94
2022-11-08T12:05:46.771Z,99980.78
2022-11-08T12:08:35.372Z,100015.47
2022-11-08T12:11:14.458Z,100009.13
2022-11-08T12:14:17.809Z,99999.19
2022-11-08T12:17:08.952Z,99986.31
2022-11-08T12:20:22.772Z,99959.78
2022-11-08T12:22:57.933Z,99966.28
2022-11-08T12:25:53.544Z,99959.38
2022-11-08T12:28:46.034Z,99942.69
2022-11-08T12:31:24.748Z,99951.28
2022-11-08T12:34:03.299Z,99941.16
2022-11-08T12:36:47.077Z,99932.94
2022-11-08T12:39:34.987Z,99951.19
2022-11-08T12:42:22.594Z,99965.34
2022-11-08T12:45:21.314Z,99962.50
2022-11-08T12:48:05.000Z,99960.44
2022-11-08T12:50:38.836Z,99956.63
2022-11-08T12:53:44.780Z,99958.31
2022-11-08T12:56:15.702Z,99930.75
2022-11-08T12:58:46.105Z,99919.59
2022-11-08T13:01:15.367Z,99947.97
2022-11-08T13:03:49.246Z,99950.63
2022-11-08T13:06:21.259Z,99928.50
2022-11-08T13:09:07.556Z,99938.13
2022-11-08T13:11:45.296Z,99933.22
2022-11-08T13:14:14.787Z,99905.25
2022-11-08T13:16:44.540Z,99938.44
2022-11-08T13:19:46.905Z,99898.50
2022-11-08T13:22:28.538Z,99951.28
2022-11-08T13:25:27.887Z,99953.63
2022-11-08T13:27:54.416Z,99938.88
2022-11-08T13:30:20.669Z,99947.31
2022-11-08T13:32:54.825Z,99889.63
2022-11-08T13:35:57.596Z,99917.84
2022-11-08T13:38:29.585Z,99934.91
2022-11-08T13:41:13.367Z,99915.88
2022-11-08T13:43:39.696Z,99898.88
2022-11-08T13:46:27.646Z,99936.31
2022-11-08T13:49:05.063Z,99940.97
2022-11-08T13:51:35.768Z,99936.00
2022-11-08T13:54:26.100Z,99914.84
2022-11-08T13:56:54.615Z,99922.34
2022-11-08T13:59:29.892Z,99931.72
2022-11-08T14:02:00.522Z,99934.94
2022-11-08T14:04:38.570Z,99937.94
2022-11-08T14:07:25.411Z,99929.91
2022-11-08T14:10:17.530Z,99921.41
2022-11-08T14:13:00.703Z,99907.88
2022-11-08T14:15:50.157Z,99935.47
2022-11-08T14:18:39.109Z,99933.97
2022-11-08T14:21:06.640Z,99923.31
2022-11-08T14:23:37.797Z,99941.03
2022-11-08T14:26:13.460Z,99933.97
2022-11-08T14:28:45.089Z,99934.16
2022-11-08T14:31:31.713Z,99932.00
2022-11-08T14:33:59.675Z,99898.06
2022-11-08T14:36:28.602Z,99934.34
2022-11-08T14:38:57.593Z,99937.84
2022-11-08T14:41:29.168Z,99907.03
2022-11-08T14:43:58.438Z,99929.81
2022-11-08T14:46:34.351Z,99931.03
2022-11-08T14:49:22.103Z,99935.84
2022-11-08T14:52:06.461Z,99942.28
2022-11-08T14:54:39.280Z,99935.41
2022-11-08T14:57:29.803Z,99916.75
2022-11-08T14:59:57.012Z,99932.28
2022-11-08T15:02:24.732Z,99930.75
2022-11-08T15:04:51.806Z,99929.63
2022-11-08T15:07:21.387Z,99913.56
2022-11-08T15:09:49.464Z,99879.50
2022-11-08T15:12:19.079Z,99890.13
2022-11-08T15:14:58.524Z,99885.22
2022-11-08T15:17:37.236Z,99881.44
2022-11-08T15:20:25.361Z,99901.09
2022-11-08T15:22:56.288Z,99869.16
2022-11-08T15:25:35.786Z,99892.41
2022-11-08T15:28:15.363Z,99859.28
2022-11-08T15:30:44.073Z,99857.59
2022-11-08T15:33:22.900Z,99895.81
2022-11-08T15:35:49.782Z,99897.69
2022-11-08T15:38:33.276Z,99879.72
2022-11-08T15:41:03.581Z,99871.63
2022-11-08T15:43:29.873Z,99882.28
2022-11-08T15:45:56.922Z,99866.00
2022-11-08T15:48:26.671Z,99886.72
2022-11-08T15:50:53.726Z,99842.09
2022-11-08T15:53:20.072Z,99830.94
2022-11-08T15:55:53.453Z,99879.50
2022-11-08T15:58:31.966Z,99883.84
2022-11-08T16:01:00.091Z,99855.13
2022-11-08T16:03:27.333Z,99848.50
2022-11-08T16:05:53.759Z,99840.50
2022-11-08T16:08:21.226Z,99872.16
2022-11-08T16:10:57.457Z,99877.63
2022-11-08T16:13:28.153Z,99839.28
2022-11-08T16:15:55.634Z,99853.25
2022-11-08T16:18:22.358Z,99854.41
2022-11-08T16:20:48.696Z,99830.03
2022-11-08T16:23:15.098Z,99819.16
2022-11-08T16:25:45.694Z,99875.84
2022-11-08T16:28:22.234Z,99851.00
2022-11-08T16:30:48.749Z,99844.09
2022-11-08T16:33:22.067Z,99854.50
2022-11-08T16:35:49.295Z,99861.19
2022-11-08T16:38:21.113Z,99824.72
2022-11-08T16:40:47.532Z,99833.97
2022-11-08T16:43:13.833Z,99861.41
2022-11-08T16:46:03.794Z,99844.94
2022-11-08T16:48:26.948Z,99856.28
2022-11-08T16:51:00.381Z,99850.22
2022-11-08T16:53:27.090Z,99874.41
2022-11-08T16:55:53.736Z,99872.59
2022-11-08T16:58:20.326Z,99842.38
2022-11-08T17:00:46.916Z,99838.34
2022-11-08T17:03:19.233Z,99828.53
2022-11-08T17:05:45.713Z,99861.28
2022-11-08T17:08:12.211Z,99878.81
2022-11-08T17:10:38.933Z,99870.38
2022-11-08T17:13:05.826Z,99811.50
2022-11-08T17:15:32.474Z,99884.63
2022-11-08T17:17:59.304Z,99876.78
2022-11-08T17:20:26.460Z,99873.88
2022-11-08T17:22:52.889Z,99856.66
2022-11-08T17:25:21.467Z,99893.72
2022-11-08T17:27:50.193Z,99884.16
2022-11-08T17:30:19.299Z,99829.09
2022-11-08T17:32:48.845Z,99886.31
2022-11-08T17:35:15.482Z,99856.28
2022-11-08T17:37:41.861Z,99784.13
2022-11-08T17:40:08.797Z,99880.25
2022-11-08T17:42:38.190Z,99902.03
2022-11-08T17:45:10.270Z,99873.94
2022-11-08T17:47:37.502Z,99913.38
2022-11-08T17:50:04.400Z,99916.78
2022-11-08T17:52:30.826Z,99909.53
2022-11-08T17:54:57.145Z,99842.00
2022-11-08T17:57:23.447Z,99889.53
2022-11-08T17:59:50.367Z,99901.03
2022-11-08T18:02:16.776Z,99866.47
2022-11-08T18:04:43.170Z,99885.06
2022-11-08T18:07:09.555Z,99871.00
2022-11-08T18:09:35.935Z,99869.50
2022-11-08T18:12:02.415Z,99865.97
2022-11-08T18:14:29.104Z,99873.66
2022-11-08T18:16:56.485Z,99871.38
2022-11-08T18:19:23.650Z,99851.25
2022-11-08T18:21:50.010Z,99883.44
2022-11-08T18:24:16.554Z,99850.88
2022-11-08T18:26:42.892Z,99859.06
2022-11-08T18:29:09.197Z,99893.75
2022-11-08T18:31:35.620Z,99906.03
2022-11-08T18:34:01.981Z,99904.25
2022-11-08T18:36:30.898Z,99879.59
2022-11-08T18:38:59.801Z,99831.88
2022-11-08T18:41:29.156Z,99872.31
2022-11-08T18:43:57.099Z,99873.34
2022-11-08T18:46:25.039Z,99865.31
2022-11-08T18:48:51.720Z,99886.63
2022-11-08T18:51:20.253Z,99891.44
2022-11-08T18:53:46.797Z,99881.88
2022-11-08T18:56:14.091Z,99899.16
2022-11-08T18:58:41.193Z,99901.41
2022-11-08T19:01:07.590Z,99872.50
2022-11-08T19:03:34.664Z,99856.81
2022-11-08T19:06:01.002Z,99859.38
2022-11-08T19:08:30.094Z,99908.03
2022-11-08T19:11:01.113Z,99900.03
2022-11-08T19:13:29.876Z,99902.38
2022-11-08T19:16:01.077Z,99843.22
2022-11-08T19:18:28.856Z,99895.56
2022-11-08T19:21:00.904Z,99891.22
2022-11-08T19:23:27.206Z,99878.94
2022-11-08T19:26:03.913Z,99914.25
2022-11-08T19:28:35.993Z,99896.13
2022-11-08T19:31:03.083Z,99851.31
2022-11-08T19:33:31.058Z,99903.50
2022-11-08T19:36:08.268Z,99876.84
2022-11-08T19:38:37.951Z,99893.84
2022-11-08T19:41:06.328Z,99904.53
2022-11-08T19:43:37.405Z,99857.53
2022-11-08T19:46:07.124Z,99901.66
2022-11-08T19:48:38.860Z,99898.66
2022-11-08T19:51:07.592Z,99899.31
2022-11-08T19:53:34.822Z,99918.22
2022-11-08T19:56:06.703Z,99918.69
2022-11-08T19:58:34.801Z,99916.06
2022-11-08T20:01:18.065Z,99922.56
2022-11-08T20:03:45.324Z,99938.00
2022-11-08T20:06:12.767Z,99937.84
2022-11-08T20:08:39.404Z,99939.91
2022-11-08T20:11:26.267Z,99927.63
2022-11-08T20:13:52.838Z,99912.47
2022-11-08T20:16:27.894Z,99944.47
2022-11-08T20:19:02.382Z,99942.41
2022-11-08T20:21:28.743Z,99902.88
2022-11-08T20:23:55.200Z,99911.34
2022-11-08T20:26:23.530Z,99925.56
2022-11-08T20:28:56.426Z,99941.59
2022-11-08T20:31:24.415Z,99905.47
2022-11-08T20:33:53.117Z,99932.91
2022-11-08T20:36:22.181Z,99920.34
2022-11-08T20:38:48.868Z,99919.22
2022-11-08T20:41:17.190Z,99929.91
2022-11-08T20:43:45.818Z,99931.69
2022-11-08T20:46:15.193Z,99905.34
2022-11-08T20:48:43.804Z,99889.19
2022-11-08T20:51:13.670Z,99915.09
2022-11-08T20:53:40.320Z,99925.09
2022-11-08T20:56:14.430Z,99918.53
2022-11-08T20:58:42.206Z,99900.94
2022-11-08T21:01:10.900Z,99921.34
2022-11-08T21:03:37.605Z,99893.78
2022-11-08T21:06:06.731Z,99901.13
2022-11-08T21:11:20.994Z,99917.16
2022-11-08T21:13:47.626Z,99907.44
2022-11-08T21:16:29.327Z,99905.41
2022-11-08T21:18:57.454Z,99944.75
2022-11-08T21:21:24.182Z,99944.66
2022-11-08T21:23:50.801Z,99919.84
2022-11-08T21:26:19.062Z,99957.69
2022-11-08T21:28:46.361Z,99892.63
2022-11-08T21:31:13.202Z,99875.53
2022-11-08T21:33:40.087Z,99930.13
2022-11-08T21:36:07.051Z,99927.88
2022-11-08T21:38:39.002Z,99904.38
2022-11-08T21:41:08.412Z,99949.34
2022-11-08T21:43:41.267Z,99935.06
2022-11-08T21:46:19.186Z,99941.88
2022-11-08T21:48:46.199Z,99933.78
2022-11-08T21:51:13.094Z,99929.44
2022-11-08T21:53:48.146Z,99954.13
2022-11-08T21:56:20.310Z,99953.13
2022-11-08T21:58:46.757Z,99946.50
2022-11-08T22:01:13.151Z,99930.88
2022-11-08T22:03:39.587Z,99918.97
2022-11-08T22:06:06.089Z,99924.66
2022-11-08T22:08:32.409Z,99907.97
2022-11-08T22:10:58.761Z,99924.84
2022-11-08T22:13:25.085Z,99935.91
2022-11-08T22:15:51.469Z,99934.88
2022-11-08T22:18:26.346Z,99917.78
2022-11-08T22:21:22.535Z,99887.53
2022-11-08T22:23:48.831Z,99954.44
2022-11-08T22:26:15.133Z,99897.41
2022-11-08T22:28:41.770Z,99901.16
2022-11-08T22:31:08.166Z,99907.59
2022-11-08T22:33:34.472Z,99923.66
2022-11-08T22:36:00.860Z,99911.91
2022-11-08T22:38:27.168Z,99919.84
2022-11-08T22:40:53.493Z,99934.88
2022-11-08T22:43:19.794Z,99912.03
2022-11-08T22:45:46.120Z,99939.22
2022-11-08T22:48:12.645Z,99933.50
2022-11-08T22:50:39.172Z,99966.59
2022-11-08T22:53:06.014Z,99952.13
2022-11-08T22:55:32.377Z,99939.50
2022-11-08T22:57:58.688Z,99971.19
2022-11-08T23:00:25.009Z,99951.56
2022-11-08T23:02:51.355Z,99960.41
2022-11-08T23:05:17.838Z,99983.31
2022-11-08T23:07:44.216Z,99929.63
2022-11-08T23:10:10.692Z,99933.50
2022-11-08T23:12:55.460Z,99972.91
2022-11-08T23:15:53.995Z,99975.28
2022-11-08T23:18:21.194Z,99932.25
2022-11-08T23:21:06.623Z,99945.78
2022-11-08T23:23:51.445Z,99955.00
2022-11-08T23:26:38.231Z,99944.94
2022-11-08T23:29:23.182Z,99964.38
2022-11-08T23:31:49.695Z,99948.88
2022-11-08T23:34:16.031Z,99981.06
2022-11-08T23:36:42.352Z,99986.16
2022-11-08T23:39:08.669Z,99955.84
2022-11-08T23:41:53.654Z,99975.44
2022-11-08T23:44:26.134Z,99952.28
2022-11-08T23:46:58.412Z,99977.84
2022-11-08T23:49:25.022Z,99941.88
2022-11-08T23:51:52.231Z,99974.34
2022-11-08T23:54:18.708Z,99943.16
2022-11-08T23:56:45.784Z,99950.75
2022-11-08T23:59:13.400Z,99973.81
